sensor_id;sensor_type;location;lat;lon;timestamp;P1;durP1;ratioP1;P2;durP2;ratioP2
64457;SDS011;58438;51.200;7.252;2022-08-19T00:02:10;27.13;;;15.73;;
64457;SDS011;58438;51.200;7.252;2022-08-19T00:04:57;28.10;;;16.00;;
64457;SDS011;58438;51.200;7.252;2022-08-19T00:07:45;26.05;;;15.05;;
64457;SDS011;58438;51.200;7.252;2022-08-19T00:10:32;25.10;;;14.93;;
64457;SDS011;58438;51.200;7.252;2022-08-19T00:13:22;27.63;;;14.77;;
64457;SDS011;58438;51.200;7.252;2022-08-19T00:16:12;26.50;;;15.27;;
64457;SDS011;58438;51.200;7.252;2022-08-19T00:19:05;26.90;;;14.65;;
64457;SDS011;58438;51.200;7.252;2022-08-19T00:21:55;23.67;;;15.07;;
64457;SDS011;58438;51.200;7.252;2022-08-19T00:24:45;25.00;;;14.77;;
64457;SDS011;58438;51.200;7.252;2022-08-19T00:27:36;28.80;;;16.13;;
64457;SDS011;58438;51.200;7.252;2022-08-19T00:30:28;29.75;;;16.17;;
64457;SDS011;58438;51.200;7.252;2022-08-19T00:33:18;30.30;;;15.77;;
64457;SDS011;58438;51.200;7.252;2022-08-19T00:36:09;32.33;;;16.50;;
64457;SDS011;58438;51.200;7.252;2022-08-19T00:39:00;33.90;;;17.00;;
64457;SDS011;58438;51.200;7.252;2022-08-19T00:41:50;32.97;;;17.30;;
64457;SDS011;58438;51.200;7.252;2022-08-19T00:44:39;38.45;;;18.77;;
64457;SDS011;58438;51.200;7.252;2022-08-19T00:47:31;37.97;;;17.63;;
64457;SDS011;58438;51.200;7.252;2022-08-19T00:50:21;34.47;;;18.40;;
64457;SDS011;58438;51.200;7.252;2022-08-19T00:53:11;34.13;;;19.23;;
64457;SDS011;58438;51.200;7.252;2022-08-19T00:56:01;32.13;;;18.05;;
64457;SDS011;58438;51.200;7.252;2022-08-19T00:58:55;31.45;;;18.38;;
64457;SDS011;58438;51.200;7.252;2022-08-19T01:01:45;33.83;;;18.30;;
64457;SDS011;58438;51.200;7.252;2022-08-19T01:04:37;38.47;;;19.00;;
64457;SDS011;58438;51.200;7.252;2022-08-19T01:07:27;34.63;;;18.08;;
64457;SDS011;58438;51.200;7.252;2022-08-19T01:10:24;31.02;;;18.05;;
64457;SDS011;58438;51.200;7.252;2022-08-19T01:13:19;34.08;;;18.10;;
64457;SDS011;58438;51.200;7.252;2022-08-19T01:16:09;32.17;;;17.50;;
64457;SDS011;58438;51.200;7.252;2022-08-19T01:18:59;34.05;;;17.60;;
64457;SDS011;58438;51.200;7.252;2022-08-19T01:21:52;33.58;;;18.45;;
64457;SDS011;58438;51.200;7.252;2022-08-19T01:24:47;36.38;;;18.17;;
64457;SDS011;58438;51.200;7.252;2022-08-19T01:27:38;33.88;;;17.05;;
64457;SDS011;58438;51.200;7.252;2022-08-19T01:30:31;34.00;;;18.40;;
64457;SDS011;58438;51.200;7.252;2022-08-19T01:33:19;34.58;;;17.10;;
64457;SDS011;58438;51.200;7.252;2022-08-19T01:36:07;34.95;;;16.95;;
64457;SDS011;58438;51.200;7.252;2022-08-19T01:38:55;36.45;;;17.63;;
64457;SDS011;58438;51.200;7.252;2022-08-19T01:41:45;32.72;;;18.05;;
64457;SDS011;58438;51.200;7.252;2022-08-19T01:44:32;31.90;;;17.23;;
64457;SDS011;58438;51.200;7.252;2022-08-19T01:47:19;32.13;;;17.27;;
64457;SDS011;58438;51.200;7.252;2022-08-19T01:50:07;30.83;;;17.17;;
64457;SDS011;58438;51.200;7.252;2022-08-19T01:52:56;33.28;;;17.35;;
64457;SDS011;58438;51.200;7.252;2022-08-19T01:55:52;29.92;;;16.45;;
64457;SDS011;58438;51.200;7.252;2022-08-19T01:58:41;27.65;;;15.73;;
64457;SDS011;58438;51.200;7.252;2022-08-19T02:01:29;26.75;;;15.38;;
64457;SDS011;58438;51.200;7.252;2022-08-19T02:04:17;32.90;;;16.55;;
64457;SDS011;58438;51.200;7.252;2022-08-19T02:07:05;32.42;;;18.10;;
64457;SDS011;58438;51.200;7.252;2022-08-19T02:09:53;27.15;;;15.82;;
64457;SDS011;58438;51.200;7.252;2022-08-19T02:12:41;30.98;;;17.17;;
64457;SDS011;58438;51.200;7.252;2022-08-19T02:15:30;35.20;;;18.83;;
64457;SDS011;58438;51.200;7.252;2022-08-19T02:18:17;30.38;;;16.63;;
64457;SDS011;58438;51.200;7.252;2022-08-19T02:21:05;31.05;;;17.45;;
64457;SDS011;58438;51.200;7.252;2022-08-19T02:23:52;31.85;;;16.30;;
64457;SDS011;58438;51.200;7.252;2022-08-19T02:26:39;30.25;;;17.45;;
64457;SDS011;58438;51.200;7.252;2022-08-19T02:29:27;29.60;;;16.25;;
64457;SDS011;58438;51.200;7.252;2022-08-19T02:32:15;30.65;;;15.90;;
64457;SDS011;58438;51.200;7.252;2022-08-19T02:35:04;29.15;;;16.25;;
64457;SDS011;58438;51.200;7.252;2022-08-19T02:37:57;29.48;;;16.33;;
64457;SDS011;58438;51.200;7.252;2022-08-19T02:40:58;32.45;;;16.60;;
64457;SDS011;58438;51.200;7.252;2022-08-19T02:43:46;24.55;;;13.60;;
64457;SDS011;58438;51.200;7.252;2022-08-19T02:46:55;28.58;;;14.73;;
64457;SDS011;58438;51.200;7.252;2022-08-19T02:49:43;27.83;;;14.45;;
64457;SDS011;58438;51.200;7.252;2022-08-19T02:52:31;22.92;;;13.90;;
64457;SDS011;58438;51.200;7.252;2022-08-19T02:55:19;25.40;;;14.05;;
64457;SDS011;58438;51.200;7.252;2022-08-19T02:58:06;23.13;;;13.75;;
64457;SDS011;58438;51.200;7.252;2022-08-19T03:00:54;26.20;;;14.05;;
64457;SDS011;58438;51.200;7.252;2022-08-19T03:03:41;23.17;;;13.20;;
64457;SDS011;58438;51.200;7.252;2022-08-19T03:06:30;21.67;;;12.88;;
64457;SDS011;58438;51.200;7.252;2022-08-19T03:09:17;19.63;;;11.63;;
64457;SDS011;58438;51.200;7.252;2022-08-19T03:12:05;21.80;;;13.20;;
64457;SDS011;58438;51.200;7.252;2022-08-19T03:14:52;22.05;;;11.88;;
64457;SDS011;58438;51.200;7.252;2022-08-19T03:17:39;20.80;;;11.30;;
64457;SDS011;58438;51.200;7.252;2022-08-19T03:20:27;15.93;;;10.73;;
64457;SDS011;58438;51.200;7.252;2022-08-19T03:23:16;20.65;;;11.50;;
64457;SDS011;58438;51.200;7.252;2022-08-19T03:26:04;15.38;;;10.80;;
64457;SDS011;58438;51.200;7.252;2022-08-19T03:29:02;19.90;;;11.43;;
64457;SDS011;58438;51.200;7.252;2022-08-19T03:31:50;17.80;;;11.10;;
64457;SDS011;58438;51.200;7.252;2022-08-19T03:34:38;15.88;;;10.05;;
64457;SDS011;58438;51.200;7.252;2022-08-19T03:37:25;16.67;;;11.55;;
64457;SDS011;58438;51.200;7.252;2022-08-19T03:40:14;16.50;;;10.98;;
64457;SDS011;58438;51.200;7.252;2022-08-19T03:43:02;21.33;;;12.23;;
64457;SDS011;58438;51.200;7.252;2022-08-19T03:45:49;17.63;;;11.18;;
64457;SDS011;58438;51.200;7.252;2022-08-19T03:48:46;19.60;;;12.65;;
64457;SDS011;58438;51.200;7.252;2022-08-19T03:51:35;20.08;;;12.00;;
64457;SDS011;58438;51.200;7.252;2022-08-19T03:54:23;21.80;;;11.65;;
64457;SDS011;58438;51.200;7.252;2022-08-19T03:57:12;22.15;;;12.57;;
64457;SDS011;58438;51.200;7.252;2022-08-19T04:00:00;20.00;;;12.15;;
64457;SDS011;58438;51.200;7.252;2022-08-19T04:02:58;18.77;;;11.68;;
64457;SDS011;58438;51.200;7.252;2022-08-19T04:05:46;19.50;;;12.25;;
64457;SDS011;58438;51.200;7.252;2022-08-19T04:08:33;20.33;;;12.02;;
64457;SDS011;58438;51.200;7.252;2022-08-19T04:11:22;18.27;;;11.13;;
64457;SDS011;58438;51.200;7.252;2022-08-19T04:14:30;16.70;;;10.88;;
64457;SDS011;58438;51.200;7.252;2022-08-19T04:17:17;20.83;;;11.13;;
64457;SDS011;58438;51.200;7.252;2022-08-19T04:20:05;18.80;;;10.73;;
64457;SDS011;58438;51.200;7.252;2022-08-19T04:22:52;17.45;;;10.88;;
64457;SDS011;58438;51.200;7.252;2022-08-19T04:25:40;17.83;;;10.85;;
64457;SDS011;58438;51.200;7.252;2022-08-19T04:28:27;17.42;;;11.15;;
64457;SDS011;58438;51.200;7.252;2022-08-19T04:31:18;18.85;;;11.00;;
64457;SDS011;58438;51.200;7.252;2022-08-19T04:34:06;16.20;;;10.10;;
64457;SDS011;58438;51.200;7.252;2022-08-19T04:36:56;18.92;;;11.70;;
64457;SDS011;58438;51.200;7.252;2022-08-19T04:39:44;18.13;;;11.85;;
64457;SDS011;58438;51.200;7.252;2022-08-19T04:42:48;16.85;;;11.45;;
64457;SDS011;58438;51.200;7.252;2022-08-19T04:45:36;16.10;;;10.52;;
64457;SDS011;58438;51.200;7.252;2022-08-19T04:48:30;16.95;;;11.25;;
64457;SDS011;58438;51.200;7.252;2022-08-19T04:51:19;19.17;;;11.93;;
64457;SDS011;58438;51.200;7.252;2022-08-19T04:54:07;17.98;;;11.88;;
64457;SDS011;58438;51.200;7.252;2022-08-19T04:56:54;25.83;;;13.85;;
64457;SDS011;58438;51.200;7.252;2022-08-19T04:59:41;23.88;;;14.23;;
64457;SDS011;58438;51.200;7.252;2022-08-19T05:02:28;26.08;;;15.30;;
64457;SDS011;58438;51.200;7.252;2022-08-19T05:05:17;26.48;;;15.15;;
64457;SDS011;58438;51.200;7.252;2022-08-19T05:08:05;28.60;;;15.68;;
64457;SDS011;58438;51.200;7.252;2022-08-19T05:10:52;29.77;;;15.00;;
64457;SDS011;58438;51.200;7.252;2022-08-19T05:13:41;32.30;;;16.25;;
64457;SDS011;58438;51.200;7.252;2022-08-19T05:16:28;29.38;;;16.17;;
64457;SDS011;58438;51.200;7.252;2022-08-19T05:19:16;33.55;;;16.05;;
64457;SDS011;58438;51.200;7.252;2022-08-19T05:22:22;33.00;;;16.25;;
64457;SDS011;58438;51.200;7.252;2022-08-19T05:25:20;34.97;;;18.15;;
64457;SDS011;58438;51.200;7.252;2022-08-19T05:28:10;37.05;;;18.20;;
64457;SDS011;58438;51.200;7.252;2022-08-19T05:30:58;43.42;;;18.75;;
64457;SDS011;58438;51.200;7.252;2022-08-19T05:33:45;35.53;;;18.30;;
64457;SDS011;58438;51.200;7.252;2022-08-19T05:36:33;36.85;;;18.88;;
64457;SDS011;58438;51.200;7.252;2022-08-19T05:39:23;39.17;;;19.17;;
64457;SDS011;58438;51.200;7.252;2022-08-19T05:42:11;39.75;;;19.08;;
64457;SDS011;58438;51.200;7.252;2022-08-19T05:44:58;40.92;;;21.05;;
64457;SDS011;58438;51.200;7.252;2022-08-19T05:47:46;45.70;;;21.83;;
64457;SDS011;58438;51.200;7.252;2022-08-19T05:50:35;38.67;;;19.48;;
64457;SDS011;58438;51.200;7.252;2022-08-19T05:53:23;41.63;;;19.75;;
64457;SDS011;58438;51.200;7.252;2022-08-19T05:56:12;44.80;;;22.08;;
64457;SDS011;58438;51.200;7.252;2022-08-19T05:59:01;44.20;;;21.02;;
64457;SDS011;58438;51.200;7.252;2022-08-19T06:01:52;44.53;;;22.20;;
64457;SDS011;58438;51.200;7.252;2022-08-19T06:04:42;47.00;;;22.30;;
64457;SDS011;58438;51.200;7.252;2022-08-19T06:07:29;45.47;;;23.20;;
64457;SDS011;58438;51.200;7.252;2022-08-19T06:10:17;48.28;;;22.23;;
64457;SDS011;58438;51.200;7.252;2022-08-19T06:13:06;51.28;;;24.45;;
64457;SDS011;58438;51.200;7.252;2022-08-19T06:15:53;54.47;;;24.83;;
64457;SDS011;58438;51.200;7.252;2022-08-19T06:18:40;57.08;;;27.55;;
64457;SDS011;58438;51.200;7.252;2022-08-19T06:21:29;64.03;;;28.45;;
64457;SDS011;58438;51.200;7.252;2022-08-19T06:24:19;57.58;;;28.30;;
64457;SDS011;58438;51.200;7.252;2022-08-19T06:27:09;54.13;;;27.73;;
64457;SDS011;58438;51.200;7.252;2022-08-19T06:29:58;61.92;;;28.27;;
64457;SDS011;58438;51.200;7.252;2022-08-19T06:32:45;64.38;;;28.67;;
64457;SDS011;58438;51.200;7.252;2022-08-19T06:35:33;58.33;;;27.25;;
64457;SDS011;58438;51.200;7.252;2022-08-19T06:38:25;63.80;;;29.73;;
64457;SDS011;58438;51.200;7.252;2022-08-19T06:41:13;64.95;;;29.88;;
64457;SDS011;58438;51.200;7.252;2022-08-19T06:44:00;70.88;;;31.73;;
64457;SDS011;58438;51.200;7.252;2022-08-19T06:46:49;67.95;;;30.92;;
64457;SDS011;58438;51.200;7.252;2022-08-19T06:49:39;73.93;;;33.05;;
64457;SDS011;58438;51.200;7.252;2022-08-19T06:52:26;75.25;;;32.88;;
64457;SDS011;58438;51.200;7.252;2022-08-19T06:55:14;66.38;;;31.95;;
64457;SDS011;58438;51.200;7.252;2022-08-19T06:58:03;72.80;;;32.88;;
64457;SDS011;58438;51.200;7.252;2022-08-19T07:00:50;74.38;;;32.58;;
64457;SDS011;58438;51.200;7.252;2022-08-19T07:03:39;69.85;;;31.85;;
64457;SDS011;58438;51.200;7.252;2022-08-19T07:06:27;69.53;;;30.48;;
64457;SDS011;58438;51.200;7.252;2022-08-19T07:09:29;69.70;;;32.50;;
64457;SDS011;58438;51.200;7.252;2022-08-19T07:12:17;72.18;;;33.03;;
64457;SDS011;58438;51.200;7.252;2022-08-19T07:15:07;70.07;;;30.75;;
64457;SDS011;58438;51.200;7.252;2022-08-19T07:17:56;70.78;;;32.33;;
64457;SDS011;58438;51.200;7.252;2022-08-19T07:20:46;71.60;;;33.70;;
64457;SDS011;58438;51.200;7.252;2022-08-19T07:23:33;82.65;;;34.67;;
64457;SDS011;58438;51.200;7.252;2022-08-19T07:26:23;76.60;;;34.92;;
64457;SDS011;58438;51.200;7.252;2022-08-19T07:29:12;84.22;;;37.70;;
64457;SDS011;58438;51.200;7.252;2022-08-19T07:32:00;77.95;;;35.20;;
64457;SDS011;58438;51.200;7.252;2022-08-19T07:34:48;91.07;;;37.50;;
64457;SDS011;58438;51.200;7.252;2022-08-19T07:37:37;88.63;;;38.45;;
64457;SDS011;58438;51.200;7.252;2022-08-19T07:40:30;80.47;;;34.65;;
64457;SDS011;58438;51.200;7.252;2022-08-19T07:43:17;84.90;;;35.40;;
64457;SDS011;58438;51.200;7.252;2022-08-19T07:46:19;90.78;;;39.95;;
64457;SDS011;58438;51.200;7.252;2022-08-19T07:49:08;77.13;;;35.53;;
64457;SDS011;58438;51.200;7.252;2022-08-19T07:52:04;78.15;;;34.28;;
64457;SDS011;58438;51.200;7.252;2022-08-19T07:54:53;81.78;;;34.20;;
64457;SDS011;58438;51.200;7.252;2022-08-19T07:57:40;85.28;;;35.72;;
64457;SDS011;58438;51.200;7.252;2022-08-19T08:00:29;71.95;;;32.67;;
64457;SDS011;58438;51.200;7.252;2022-08-19T08:03:18;79.25;;;35.42;;
64457;SDS011;58438;51.200;7.252;2022-08-19T08:06:05;68.78;;;32.80;;
64457;SDS011;58438;51.200;7.252;2022-08-19T08:09:13;78.60;;;35.13;;
64457;SDS011;58438;51.200;7.252;2022-08-19T08:12:14;74.00;;;34.55;;
64457;SDS011;58438;51.200;7.252;2022-08-19T08:15:18;85.85;;;35.72;;
64457;SDS011;58438;51.200;7.252;2022-08-19T08:18:10;73.25;;;33.25;;
64457;SDS011;58438;51.200;7.252;2022-08-19T08:20:59;70.43;;;33.50;;
64457;SDS011;58438;51.200;7.252;2022-08-19T08:23:46;75.18;;;34.65;;
64457;SDS011;58438;51.200;7.252;2022-08-19T08:26:36;76.05;;;36.17;;
64457;SDS011;58438;51.200;7.252;2022-08-19T08:29:33;71.88;;;34.50;;
64457;SDS011;58438;51.200;7.252;2022-08-19T08:32:19;74.45;;;34.83;;
64457;SDS011;58438;51.200;7.252;2022-08-19T08:35:09;74.78;;;35.08;;
64457;SDS011;58438;51.200;7.252;2022-08-19T08:37:56;75.85;;;34.33;;
64457;SDS011;58438;51.200;7.252;2022-08-19T08:40:46;71.38;;;35.92;;
64457;SDS011;58438;51.200;7.252;2022-08-19T08:43:37;74.97;;;36.45;;
64457;SDS011;58438;51.200;7.252;2022-08-19T08:46:30;81.00;;;39.30;;
64457;SDS011;58438;51.200;7.252;2022-08-19T08:52:11;94.15;;;42.33;;
64457;SDS011;58438;51.200;7.252;2022-08-19T08:55:00;103.20;;;43.80;;
64457;SDS011;58438;51.200;7.252;2022-08-19T08:57:57;96.22;;;42.55;;
64457;SDS011;58438;51.200;7.252;2022-08-19T09:00:48;101.15;;;44.95;;
64457;SDS011;58438;51.200;7.252;2022-08-19T09:03:37;84.75;;;40.00;;
64457;SDS011;58438;51.200;7.252;2022-08-19T09:06:29;79.85;;;37.53;;
64457;SDS011;58438;51.200;7.252;2022-08-19T09:09:20;74.28;;;34.85;;
64457;SDS011;58438;51.200;7.252;2022-08-19T09:12:14;64.55;;;32.58;;
64457;SDS011;58438;51.200;7.252;2022-08-19T09:15:12;67.40;;;31.58;;
64457;SDS011;58438;51.200;7.252;2022-08-19T09:17:59;70.88;;;32.50;;
64457;SDS011;58438;51.200;7.252;2022-08-19T09:20:53;59.83;;;31.65;;
64457;SDS011;58438;51.200;7.252;2022-08-19T09:23:41;67.35;;;31.88;;
64457;SDS011;58438;51.200;7.252;2022-08-19T09:26:30;55.75;;;29.80;;
64457;SDS011;58438;51.200;7.252;2022-08-19T09:29:32;54.85;;;27.60;;
64457;SDS011;58438;51.200;7.252;2022-08-19T09:32:21;62.60;;;31.02;;
64457;SDS011;58438;51.200;7.252;2022-08-19T09:35:12;55.25;;;29.30;;
64457;SDS011;58438;51.200;7.252;2022-08-19T09:38:02;53.28;;;27.63;;
64457;SDS011;58438;51.200;7.252;2022-08-19T09:40:50;52.85;;;27.90;;
64457;SDS011;58438;51.200;7.252;2022-08-19T09:43:37;47.10;;;24.70;;
64457;SDS011;58438;51.200;7.252;2022-08-19T09:46:30;42.15;;;23.88;;
64457;SDS011;58438;51.200;7.252;2022-08-19T09:49:18;42.35;;;23.30;;
64457;SDS011;58438;51.200;7.252;2022-08-19T09:52:05;51.13;;;25.20;;
64457;SDS011;58438;51.200;7.252;2022-08-19T09:54:59;47.70;;;24.77;;
64457;SDS011;58438;51.200;7.252;2022-08-19T09:57:53;44.40;;;24.73;;
64457;SDS011;58438;51.200;7.252;2022-08-19T10:00:41;48.42;;;26.67;;
64457;SDS011;58438;51.200;7.252;2022-08-19T10:03:35;47.30;;;25.70;;
64457;SDS011;58438;51.200;7.252;2022-08-19T10:06:23;48.38;;;25.30;;
64457;SDS011;58438;51.200;7.252;2022-08-19T10:09:31;50.90;;;26.67;;
64457;SDS011;58438;51.200;7.252;2022-08-19T10:12:21;42.03;;;23.65;;
64457;SDS011;58438;51.200;7.252;2022-08-19T10:15:11;43.20;;;25.42;;
64457;SDS011;58438;51.200;7.252;2022-08-19T10:18:00;42.83;;;24.70;;
64457;SDS011;58438;51.200;7.252;2022-08-19T10:20:50;49.47;;;26.17;;
64457;SDS011;58438;51.200;7.252;2022-08-19T10:23:39;46.05;;;25.45;;
64457;SDS011;58438;51.200;7.252;2022-08-19T10:26:31;42.28;;;22.40;;
64457;SDS011;58438;51.200;7.252;2022-08-19T10:29:21;41.35;;;22.95;;
64457;SDS011;58438;51.200;7.252;2022-08-19T10:32:17;41.35;;;22.45;;
64457;SDS011;58438;51.200;7.252;2022-08-19T10:35:18;45.70;;;22.50;;
64457;SDS011;58438;51.200;7.252;2022-08-19T10:38:08;42.50;;;21.77;;
64457;SDS011;58438;51.200;7.252;2022-08-19T10:40:55;36.92;;;22.00;;
64457;SDS011;58438;51.200;7.252;2022-08-19T10:43:43;38.13;;;20.42;;
64457;SDS011;58438;51.200;7.252;2022-08-19T10:46:33;42.50;;;21.25;;
64457;SDS011;58438;51.200;7.252;2022-08-19T10:49:22;39.13;;;21.35;;
64457;SDS011;58438;51.200;7.252;2022-08-19T10:52:09;42.88;;;22.52;;
64457;SDS011;58438;51.200;7.252;2022-08-19T10:55:18;40.63;;;20.58;;
64457;SDS011;58438;51.200;7.252;2022-08-19T10:58:23;40.17;;;21.08;;
64457;SDS011;58438;51.200;7.252;2022-08-19T11:01:10;37.00;;;19.55;;
64457;SDS011;58438;51.200;7.252;2022-08-19T11:04:00;36.72;;;20.52;;
64457;SDS011;58438;51.200;7.252;2022-08-19T11:06:48;38.47;;;21.50;;
64457;SDS011;58438;51.200;7.252;2022-08-19T11:09:37;35.08;;;19.77;;
64457;SDS011;58438;51.200;7.252;2022-08-19T11:12:25;35.40;;;18.80;;
64457;SDS011;58438;51.200;7.252;2022-08-19T11:15:13;25.25;;;14.90;;
64457;SDS011;58438;51.200;7.252;2022-08-19T11:18:01;27.45;;;17.05;;
64457;SDS011;58438;51.200;7.252;2022-08-19T11:20:50;28.17;;;16.83;;
64457;SDS011;58438;51.200;7.252;2022-08-19T11:23:37;28.08;;;15.82;;
64457;SDS011;58438;51.200;7.252;2022-08-19T11:26:25;25.83;;;14.80;;
64457;SDS011;58438;51.200;7.252;2022-08-19T11:29:13;25.80;;;15.57;;
64457;SDS011;58438;51.200;7.252;2022-08-19T11:32:03;27.20;;;16.35;;
64457;SDS011;58438;51.200;7.252;2022-08-19T11:34:51;25.08;;;15.00;;
64457;SDS011;58438;51.200;7.252;2022-08-19T11:37:40;26.70;;;16.50;;
64457;SDS011;58438;51.200;7.252;2022-08-19T11:40:29;22.55;;;15.35;;
64457;SDS011;58438;51.200;7.252;2022-08-19T11:43:16;22.52;;;13.35;;
64457;SDS011;58438;51.200;7.252;2022-08-19T11:46:04;23.75;;;14.90;;
64457;SDS011;58438;51.200;7.252;2022-08-19T11:48:53;21.77;;;14.07;;
64457;SDS011;58438;51.200;7.252;2022-08-19T11:51:41;19.20;;;12.10;;
64457;SDS011;58438;51.200;7.252;2022-08-19T11:54:30;20.88;;;13.80;;
64457;SDS011;58438;51.200;7.252;2022-08-19T11:57:18;23.35;;;14.73;;
64457;SDS011;58438;51.200;7.252;2022-08-19T12:00:06;19.40;;;13.52;;
64457;SDS011;58438;51.200;7.252;2022-08-19T12:02:55;17.40;;;12.52;;
64457;SDS011;58438;51.200;7.252;2022-08-19T12:05:43;16.33;;;11.73;;
64457;SDS011;58438;51.200;7.252;2022-08-19T12:08:29;19.02;;;12.18;;
64457;SDS011;58438;51.200;7.252;2022-08-19T12:11:19;19.77;;;13.73;;
64457;SDS011;58438;51.200;7.252;2022-08-19T12:14:09;19.40;;;14.13;;
64457;SDS011;58438;51.200;7.252;2022-08-19T12:16:59;24.92;;;16.52;;
64457;SDS011;58438;51.200;7.252;2022-08-19T12:19:47;30.58;;;19.92;;
64457;SDS011;58438;51.200;7.252;2022-08-19T12:22:35;30.30;;;18.52;;
64457;SDS011;58438;51.200;7.252;2022-08-19T12:25:22;23.60;;;15.95;;
64457;SDS011;58438;51.200;7.252;2022-08-19T12:28:12;21.50;;;14.70;;
64457;SDS011;58438;51.200;7.252;2022-08-19T12:31:00;22.98;;;16.15;;
64457;SDS011;58438;51.200;7.252;2022-08-19T12:33:48;22.15;;;14.75;;
64457;SDS011;58438;51.200;7.252;2022-08-19T12:36:36;18.90;;;13.57;;
64457;SDS011;58438;51.200;7.252;2022-08-19T12:39:24;18.15;;;14.23;;
64457;SDS011;58438;51.200;7.252;2022-08-19T12:42:12;20.85;;;13.70;;
64457;SDS011;58438;51.200;7.252;2022-08-19T12:45:02;23.40;;;15.50;;
64457;SDS011;58438;51.200;7.252;2022-08-19T12:47:51;24.20;;;14.82;;
64457;SDS011;58438;51.200;7.252;2022-08-19T12:50:40;16.05;;;12.30;;
64457;SDS011;58438;51.200;7.252;2022-08-19T12:53:27;19.63;;;13.13;;
64457;SDS011;58438;51.200;7.252;2022-08-19T12:56:14;17.50;;;12.77;;
64457;SDS011;58438;51.200;7.252;2022-08-19T12:59:07;20.13;;;13.80;;
64457;SDS011;58438;51.200;7.252;2022-08-19T13:01:58;18.02;;;11.52;;
64457;SDS011;58438;51.200;7.252;2022-08-19T13:04:46;16.67;;;12.35;;
64457;SDS011;58438;51.200;7.252;2022-08-19T13:07:34;14.40;;;10.52;;
64457;SDS011;58438;51.200;7.252;2022-08-19T13:10:24;14.35;;;9.48;;
64457;SDS011;58438;51.200;7.252;2022-08-19T13:13:11;14.18;;;9.10;;
64457;SDS011;58438;51.200;7.252;2022-08-19T13:15:59;15.45;;;9.05;;
64457;SDS011;58438;51.200;7.252;2022-08-19T13:18:49;13.50;;;9.80;;
64457;SDS011;58438;51.200;7.252;2022-08-19T13:21:37;13.13;;;9.70;;
64457;SDS011;58438;51.200;7.252;2022-08-19T13:24:27;13.75;;;9.02;;
64457;SDS011;58438;51.200;7.252;2022-08-19T13:27:18;15.90;;;9.85;;
64457;SDS011;58438;51.200;7.252;2022-08-19T13:30:06;15.55;;;10.55;;
64457;SDS011;58438;51.200;7.252;2022-08-19T13:33:11;14.45;;;10.23;;
64457;SDS011;58438;51.200;7.252;2022-08-19T13:36:02;17.33;;;10.88;;
64457;SDS011;58438;51.200;7.252;2022-08-19T13:38:53;17.73;;;11.75;;
64457;SDS011;58438;51.200;7.252;2022-08-19T13:41:43;20.02;;;10.88;;
64457;SDS011;58438;51.200;7.252;2022-08-19T13:44:33;15.57;;;10.52;;
64457;SDS011;58438;51.200;7.252;2022-08-19T13:47:20;17.35;;;11.15;;
64457;SDS011;58438;51.200;7.252;2022-08-19T13:50:07;17.88;;;11.63;;
64457;SDS011;58438;51.200;7.252;2022-08-19T13:52:56;13.63;;;9.55;;
64457;SDS011;58438;51.200;7.252;2022-08-19T13:55:44;18.33;;;10.35;;
64457;SDS011;58438;51.200;7.252;2022-08-19T13:58:32;18.85;;;10.50;;
64457;SDS011;58438;51.200;7.252;2022-08-19T14:01:19;14.65;;;9.48;;
64457;SDS011;58438;51.200;7.252;2022-08-19T14:04:09;15.43;;;9.50;;
64457;SDS011;58438;51.200;7.252;2022-08-19T14:06:56;13.00;;;9.18;;
64457;SDS011;58438;51.200;7.252;2022-08-19T14:09:45;17.05;;;8.60;;
64457;SDS011;58438;51.200;7.252;2022-08-19T14:12:33;13.52;;;8.82;;
64457;SDS011;58438;51.200;7.252;2022-08-19T14:15:21;13.45;;;9.05;;
64457;SDS011;58438;51.200;7.252;2022-08-19T14:18:08;12.07;;;8.38;;
64457;SDS011;58438;51.200;7.252;2022-08-19T14:20:56;14.38;;;8.20;;
64457;SDS011;58438;51.200;7.252;2022-08-19T14:23:44;16.40;;;8.25;;
64457;SDS011;58438;51.200;7.252;2022-08-19T14:26:33;11.30;;;8.23;;
64457;SDS011;58438;51.200;7.252;2022-08-19T14:29:21;13.23;;;8.63;;
64457;SDS011;58438;51.200;7.252;2022-08-19T14:32:08;12.20;;;7.53;;
64457;SDS011;58438;51.200;7.252;2022-08-19T14:35:01;13.23;;;7.93;;
64457;SDS011;58438;51.200;7.252;2022-08-19T14:37:49;11.80;;;7.88;;
64457;SDS011;58438;51.200;7.252;2022-08-19T14:40:39;11.63;;;7.85;;
64457;SDS011;58438;51.200;7.252;2022-08-19T14:43:29;11.50;;;7.28;;
64457;SDS011;58438;51.200;7.252;2022-08-19T14:46:16;12.13;;;7.50;;
64457;SDS011;58438;51.200;7.252;2022-08-19T14:49:05;13.60;;;7.78;;
64457;SDS011;58438;51.200;7.252;2022-08-19T14:51:54;11.18;;;7.70;;
64457;SDS011;58438;51.200;7.252;2022-08-19T14:54:42;12.00;;;7.75;;
64457;SDS011;58438;51.200;7.252;2022-08-19T14:57:30;14.52;;;8.80;;
64457;SDS011;58438;51.200;7.252;2022-08-19T15:00:19;11.93;;;7.72;;
64457;SDS011;58438;51.200;7.252;2022-08-19T15:03:06;12.60;;;7.30;;
64457;SDS011;58438;51.200;7.252;2022-08-19T15:05:53;13.25;;;8.43;;
64457;SDS011;58438;51.200;7.252;2022-08-19T15:08:41;12.57;;;7.97;;
64457;SDS011;58438;51.200;7.252;2022-08-19T15:11:30;13.65;;;8.32;;
64457;SDS011;58438;51.200;7.252;2022-08-19T15:14:18;16.42;;;9.10;;
64457;SDS011;58438;51.200;7.252;2022-08-19T15:17:07;11.50;;;7.75;;
64457;SDS011;58438;51.200;7.252;2022-08-19T15:19:55;13.40;;;8.05;;
64457;SDS011;58438;51.200;7.252;2022-08-19T15:22:43;9.57;;;7.65;;
64457;SDS011;58438;51.200;7.252;2022-08-19T15:25:30;15.90;;;8.05;;
64457;SDS011;58438;51.200;7.252;2022-08-19T15:28:18;11.13;;;7.10;;
64457;SDS011;58438;51.200;7.252;2022-08-19T15:31:05;11.43;;;7.45;;
64457;SDS011;58438;51.200;7.252;2022-08-19T15:34:04;11.02;;;6.63;;
64457;SDS011;58438;51.200;7.252;2022-08-19T15:36:52;10.23;;;6.80;;
64457;SDS011;58438;51.200;7.252;2022-08-19T15:39:39;11.40;;;7.10;;
64457;SDS011;58438;51.200;7.252;2022-08-19T15:42:27;8.32;;;5.78;;
64457;SDS011;58438;51.200;7.252;2022-08-19T15:45:15;10.02;;;5.93;;
64457;SDS011;58438;51.200;7.252;2022-08-19T15:48:03;8.77;;;5.65;;
64457;SDS011;58438;51.200;7.252;2022-08-19T15:50:52;6.82;;;5.30;;
64457;SDS011;58438;51.200;7.252;2022-08-19T15:53:39;9.05;;;6.15;;
64457;SDS011;58438;51.200;7.252;2022-08-19T15:56:26;10.88;;;5.97;;
64457;SDS011;58438;51.200;7.252;2022-08-19T15:59:42;9.60;;;5.75;;
64457;SDS011;58438;51.200;7.252;2022-08-19T16:02:48;9.23;;;6.15;;
64457;SDS011;58438;51.200;7.252;2022-08-19T16:05:54;8.05;;;6.05;;
64457;SDS011;58438;51.200;7.252;2022-08-19T16:09:00;9.43;;;5.55;;
64457;SDS011;58438;51.200;7.252;2022-08-19T16:11:48;8.88;;;5.28;;
64457;SDS011;58438;51.200;7.252;2022-08-19T16:17:29;8.27;;;5.93;;
64457;SDS011;58438;51.200;7.252;2022-08-19T16:20:16;10.60;;;5.60;;
64457;SDS011;58438;51.200;7.252;2022-08-19T16:23:10;9.77;;;5.75;;
64457;SDS011;58438;51.200;7.252;2022-08-19T16:25:57;8.32;;;5.53;;
64457;SDS011;58438;51.200;7.252;2022-08-19T16:28:45;9.15;;;5.43;;
64457;SDS011;58438;51.200;7.252;2022-08-19T16:31:33;8.23;;;5.45;;
64457;SDS011;58438;51.200;7.252;2022-08-19T16:34:21;9.57;;;5.93;;
64457;SDS011;58438;51.200;7.252;2022-08-19T16:37:09;10.20;;;6.40;;
64457;SDS011;58438;51.200;7.252;2022-08-19T16:39:58;9.80;;;5.97;;
64457;SDS011;58438;51.200;7.252;2022-08-19T16:42:45;8.93;;;6.15;;